Time;durP1;ratioP1;P1;durP2;ratioP2;P2;SDS_P1;SDS_P2;PMS_P1;PMS_P2;Temp;Humidity;BMP_temperature;BMP_pressure;BME280_temperature;BME280_humidity;BME280_pressure;Samples;Min_cycle;Max_cycle;Signal;HPM_P1;HPM_P2
2024/01/18 00:02:09;;;;;;;27.33;15.80;;;;;;;;;;4924438;28;20924;-81
2024/01/18 00:04:35;;;;;;;26.53;16.07;;;;;;;;;;4951352;28;20503;-82
2024/01/18 00:07:00;;;;;;;23.60;15.97;;;;;;;;;;4957105;28;20421;-82
2024/01/18 00:09:26;;;;;;;22.17;14.90;;;;;;;;;;4955747;28;20445;-81
2024/01/18 00:11:53;;;;;;;23.10;15.93;;;;;;;;;;4956844;28;20415;-82
2024/01/18 00:14:19;;;;;;;20.90;16.93;;;;;;;;;;4956503;28;20413;-82
2024/01/18 00:16:45;;;;;;;25.37;16.37;;;;;;;;;;4956747;28;20483;-82
2024/01/18 00:19:11;;;;;;;24.57;17.17;;;;;;;;;;4956787;28;20407;-82
2024/01/18 00:21:37;;;;;;;21.67;15.03;;;;;;;;;;4956609;28;20903;-82
2024/01/18 00:24:03;;;;;;;20.57;14.20;;;;;;;;;;4955400;28;20424;-81
2024/01/18 00:26:28;;;;;;;25.73;17.70;;;;;;;;;;4956573;28;20490;-81
2024/01/18 00:28:54;;;;;;;22.97;16.70;;;;;;;;;;4956253;28;20893;-80
2024/01/18 00:31:20;;;;;;;21.73;16.00;;;;;;;;;;4956668;28;20478;-81
2024/01/18 00:33:49;;;;;;;20.70;15.20;;;;;;;;;;4956544;28;20426;-81
2024/01/18 00:36:15;;;;;;;20.60;15.07;;;;;;;;;;4956477;28;20467;-80
2024/01/18 00:38:41;;;;;;;18.30;14.73;;;;;;;;;;4956507;28;20432;-80
2024/01/18 00:41:07;;;;;;;20.50;14.70;;;;;;;;;;4955919;28;20499;-80
2024/01/18 00:43:33;;;;;;;20.33;14.20;;;;;;;;;;4954563;28;20557;-80
2024/01/18 00:46:03;;;;;;;23.30;16.47;;;;;;;;;;4951857;28;20483;-81
2024/01/18 00:48:28;;;;;;;24.43;16.37;;;;;;;;;;4956319;28;20412;-81
2024/01/18 00:50:54;;;;;;;22.40;15.30;;;;;;;;;;4956343;28;20412;-81
2024/01/18 00:53:20;;;;;;;23.87;18.87;;;;;;;;;;4956139;28;20960;-81
2024/01/18 00:55:46;;;;;;;23.20;15.27;;;;;;;;;;4955977;28;20961;-80
2024/01/18 00:58:13;;;;;;;24.03;16.20;;;;;;;;;;4956163;28;20487;-81
2024/01/18 01:00:39;;;;;;;21.97;16.90;;;;;;;;;;4955761;28;20471;-80
2024/01/18 01:03:05;;;;;;;23.17;16.90;;;;;;;;;;4916716;28;20444;-81
2024/01/18 01:05:31;;;;;;;22.77;16.07;;;;;;;;;;4955911;28;20489;-80
2024/01/18 01:07:57;;;;;;;23.90;17.17;;;;;;;;;;4955903;28;20901;-80
2024/01/18 01:10:23;;;;;;;22.47;17.23;;;;;;;;;;4955802;28;20444;-80
2024/01/18 01:12:48;;;;;;;21.50;15.90;;;;;;;;;;4955740;28;20483;-80
2024/01/18 01:15:14;;;;;;;21.33;15.77;;;;;;;;;;4954148;28;20975;-80
2024/01/18 01:17:42;;;;;;;20.30;15.30;;;;;;;;;;4955571;28;20968;-80
2024/01/18 01:20:09;;;;;;;25.80;18.97;;;;;;;;;;4955769;28;20412;-80
2024/01/18 01:22:38;;;;;;;23.40;17.57;;;;;;;;;;4955595;28;20536;-81
2024/01/18 01:25:04;;;;;;;21.97;16.90;;;;;;;;;;4955575;28;20491;-80
2024/01/18 01:27:30;;;;;;;25.00;19.33;;;;;;;;;;4955562;28;20429;-80
2024/01/18 01:29:56;;;;;;;23.57;18.00;;;;;;;;;;4955245;28;20432;-80
2024/01/18 01:32:22;;;;;;;37.33;20.87;;;;;;;;;;4954179;28;20432;-80
2024/01/18 01:34:48;;;;;;;22.20;16.50;;;;;;;;;;4955427;28;20430;-80
2024/01/18 01:37:14;;;;;;;31.67;20.27;;;;;;;;;;4955375;28;20484;-80
2024/01/18 01:39:40;;;;;;;25.23;19.20;;;;;;;;;;4954093;28;20424;-78
2024/01/18 01:42:06;;;;;;;28.10;19.17;;;;;;;;;;4955268;28;20432;-80
2024/01/18 01:44:32;;;;;;;23.93;18.00;;;;;;;;;;4955076;28;20898;-80
2024/01/18 01:46:58;;;;;;;24.40;17.27;;;;;;;;;;4947929;28;20429;-80
2024/01/18 01:49:24;;;;;;;29.17;20.30;;;;;;;;;;4936178;29;20406;-80
2024/01/18 01:51:52;;;;;;;31.70;19.70;;;;;;;;;;4935577;29;20974;-80
2024/01/18 01:54:21;;;;;;;25.67;20.03;;;;;;;;;;4935632;29;20505;-80
2024/01/18 01:56:49;;;;;;;24.60;16.90;;;;;;;;;;4940299;29;20487;-80
2024/01/18 01:59:16;;;;;;;25.87;18.13;;;;;;;;;;4954746;29;20417;-79
2024/01/18 02:01:43;;;;;;;17.20;15.03;;;;;;;;;;4954969;29;20415;-79
2024/01/18 02:04:09;;;;;;;23.20;17.50;;;;;;;;;;4955045;29;20811;-78
2024/01/18 02:06:36;;;;;;;25.97;16.87;;;;;;;;;;4953754;29;20428;-78
2024/01/18 02:09:02;;;;;;;25.60;18.27;;;;;;;;;;4955063;28;20504;-78
2024/01/18 02:11:28;;;;;;;29.67;18.57;;;;;;;;;;4948186;28;20511;-78
2024/01/18 02:14:06;;;;;;;24.80;18.20;;;;;;;;;;4924318;28;20420;-78
2024/01/18 02:16:33;;;;;;;23.80;15.97;;;;;;;;;;4954879;28;20574;-78
2024/01/18 02:18:59;;;;;;;26.23;18.17;;;;;;;;;;4954790;28;20424;-78
2024/01/18 02:21:26;;;;;;;26.33;17.03;;;;;;;;;;4953889;28;20424;-79
2024/01/18 02:23:55;;;;;;;21.17;16.23;;;;;;;;;;4954720;28;21007;-78
2024/01/18 02:26:21;;;;;;;20.73;16.47;;;;;;;;;;4954889;28;20420;-78
2024/01/18 02:28:56;;;;;;;23.63;16.80;;;;;;;;;;4954354;28;20815;-79
2024/01/18 02:31:22;;;;;;;24.53;18.13;;;;;;;;;;4954809;28;20411;-78
2024/01/18 02:33:48;;;;;;;23.47;16.70;;;;;;;;;;4954616;28;20427;-78
2024/01/18 02:36:15;;;;;;;28.03;17.67;;;;;;;;;;4954424;28;20471;-78
2024/01/18 02:38:41;;;;;;;23.33;17.97;;;;;;;;;;4954601;28;20427;-78
2024/01/18 02:41:07;;;;;;;21.47;15.37;;;;;;;;;;4954641;28;20873;-78
2024/01/18 02:43:33;;;;;;;25.63;18.77;;;;;;;;;;4954140;28;20511;-78
2024/01/18 02:45:59;;;;;;;22.30;16.40;;;;;;;;;;4954685;28;20419;-78
2024/01/18 02:48:26;;;;;;;21.60;15.70;;;;;;;;;;4954661;28;20413;-79
2024/01/18 02:50:51;;;;;;;25.00;18.57;;;;;;;;;;4954668;28;20429;-78
2024/01/18 02:53:20;;;;;;;24.17;17.27;;;;;;;;;;4954104;28;20475;-79
2024/01/18 02:55:46;;;;;;;26.53;16.87;;;;;;;;;;4954434;28;20473;-78
2024/01/18 02:58:11;;;;;;;26.00;18.50;;;;;;;;;;4954603;28;20427;-79
2024/01/18 03:00:38;;;;;;;20.07;17.30;;;;;;;;;;4954305;28;20413;-79
2024/01/18 03:03:04;;;;;;;24.70;16.60;;;;;;;;;;4954461;28;20427;-79
2024/01/18 03:05:30;;;;;;;25.97;19.10;;;;;;;;;;4957688;28;20412;-79
2024/01/18 03:07:56;;;;;;;25.20;18.57;;;;;;;;;;4958154;28;20408;-79
2024/01/18 03:10:22;;;;;;;24.57;17.30;;;;;;;;;;4957627;28;20912;-78
2024/01/18 03:12:48;;;;;;;22.60;15.63;;;;;;;;;;4957945;28;20430;-78
2024/01/18 03:15:14;;;;;;;26.80;17.90;;;;;;;;;;4957016;28;21223;-78
2024/01/18 03:17:40;;;;;;;27.97;19.40;;;;;;;;;;4956802;28;20484;-79
2024/01/18 03:20:07;;;;;;;29.03;19.57;;;;;;;;;;4957310;28;20420;-79
2024/01/18 03:22:40;;;;;;;25.27;17.50;;;;;;;;;;4957167;28;20396;-78
2024/01/18 03:25:06;;;;;;;23.60;18.17;;;;;;;;;;4956199;28;20424;-79
2024/01/18 03:27:32;;;;;;;25.73;18.07;;;;;;;;;;4957458;28;20414;-79
2024/01/18 03:29:57;;;;;;;23.97;17.57;;;;;;;;;;4955022;28;20418;-79
2024/01/18 03:32:27;;;;;;;22.90;17.80;;;;;;;;;;4922182;28;20918;-79
2024/01/18 03:34:52;;;;;;;23.70;15.47;;;;;;;;;;4952756;29;20454;-80
2024/01/18 03:37:18;;;;;;;27.60;18.90;;;;;;;;;;4957276;28;20931;-80
2024/01/18 03:39:53;;;;;;;21.03;16.20;;;;;;;;;;4957182;28;20423;-81
2024/01/18 03:42:22;;;;;;;27.57;18.30;;;;;;;;;;4957233;28;20778;-81
2024/01/18 03:44:48;;;;;;;23.83;17.53;;;;;;;;;;4956703;28;20504;-80
2024/01/18 03:47:14;;;;;;;25.23;16.77;;;;;;;;;;4957214;28;21011;-80
2024/01/18 03:49:42;;;;;;;25.90;16.60;;;;;;;;;;4957059;28;20418;-80
2024/01/18 03:52:08;;;;;;;29.60;18.27;;;;;;;;;;4956709;28;20448;-81
2024/01/18 03:54:34;;;;;;;28.33;17.07;;;;;;;;;;4956987;28;20418;-80
2024/01/18 03:57:00;;;;;;;21.70;17.70;;;;;;;;;;4956886;28;20472;-78
2024/01/18 03:59:26;;;;;;;20.70;16.03;;;;;;;;;;4956541;28;20486;-78
2024/01/18 04:01:52;;;;;;;25.43;17.17;;;;;;;;;;4956846;28;20433;-78
2024/01/18 04:04:18;;;;;;;22.40;17.70;;;;;;;;;;4956808;28;20417;-79
2024/01/18 04:06:44;;;;;;;21.70;17.03;;;;;;;;;;4958614;28;20430;-79
2024/01/18 04:09:10;;;;;;;24.57;16.80;;;;;;;;;;4956816;28;20419;-78
2024/01/18 04:11:36;;;;;;;23.83;14.23;;;;;;;;;;4956659;28;20420;-79
2024/01/18 04:14:02;;;;;;;25.50;18.10;;;;;;;;;;4956296;28;20447;-79
2024/01/18 04:16:29;;;;;;;21.63;16.23;;;;;;;;;;4955522;28;20499;-79
2024/01/18 04:18:55;;;;;;;24.57;16.73;;;;;;;;;;4956567;28;20531;-78
2024/01/18 04:21:21;;;;;;;27.87;18.80;;;;;;;;;;4956522;28;20431;-78
2024/01/18 04:23:47;;;;;;;21.60;16.57;;;;;;;;;;4956329;28;20973;-78
2024/01/18 04:26:13;;;;;;;24.00;15.63;;;;;;;;;;4956402;28;20495;-78
2024/01/18 04:28:39;;;;;;;21.90;17.20;;;;;;;;;;4956081;28;20483;-78
2024/01/18 04:31:04;;;;;;;27.63;18.13;;;;;;;;;;4971215;28;20924;-78
2024/01/18 04:33:30;;;;;;;29.83;18.10;;;;;;;;;;4956331;28;20425;-78
2024/01/18 04:35:56;;;;;;;26.50;17.73;;;;;;;;;;4956139;28;20427;-78
2024/01/18 04:38:23;;;;;;;25.60;18.00;;;;;;;;;;4956216;28;20432;-78
2024/01/18 04:40:50;;;;;;;24.57;18.83;;;;;;;;;;4953555;29;20459;-78
2024/01/18 04:43:16;;;;;;;21.30;16.40;;;;;;;;;;4955716;28;20432;-78
2024/01/18 04:45:42;;;;;;;23.07;17.10;;;;;;;;;;4956063;28;20408;-79
2024/01/18 04:48:08;;;;;;;19.70;15.10;;;;;;;;;;4955969;28;20983;-78
2024/01/18 04:50:34;;;;;;;25.53;16.27;;;;;;;;;;4955887;28;20466;-78
2024/01/18 04:53:00;;;;;;;21.57;17.50;;;;;;;;;;4955767;28;20519;-77
2024/01/18 04:55:26;;;;;;;24.57;18.33;;;;;;;;;;4955938;28;20402;-77
2024/01/18 04:57:52;;;;;;;23.50;16.70;;;;;;;;;;4955718;28;20486;-78
2024/01/18 05:00:18;;;;;;;23.53;16.70;;;;;;;;;;4955470;28;20894;-77
2024/01/18 05:02:44;;;;;;;23.43;15.27;;;;;;;;;;4916927;28;20445;-77
2024/01/18 05:05:10;;;;;;;26.97;18.83;;;;;;;;;;4955767;28;20412;-77
2024/01/18 05:07:37;;;;;;;22.47;15.43;;;;;;;;;;4955720;28;20428;-78
2024/01/18 05:10:04;;;;;;;31.43;17.50;;;;;;;;;;4955675;28;20410;-78
2024/01/18 05:12:30;;;;;;;23.60;16.03;;;;;;;;;;4955573;28;20508;-77
2024/01/18 05:14:56;;;;;;;25.03;15.13;;;;;;;;;;4970067;28;20423;-78
2024/01/18 05:17:22;;;;;;;25.93;18.07;;;;;;;;;;4955476;28;20480;-77
2024/01/18 05:19:48;;;;;;;23.50;15.87;;;;;;;;;;4955303;28;20475;-78
2024/01/18 05:22:14;;;;;;;28.67;16.73;;;;;;;;;;4955380;28;20425;-78
2024/01/18 05:24:40;;;;;;;27.97;18.00;;;;;;;;;;4955322;28;20418;-78
2024/01/18 05:27:07;;;;;;;23.17;16.93;;;;;;;;;;4970021;28;20935;-78
2024/01/18 05:29:33;;;;;;;23.43;18.47;;;;;;;;;;4969680;28;20475;-79
2024/01/18 05:31:59;;;;;;;20.03;15.57;;;;;;;;;;4955353;28;20901;-78
2024/01/18 05:34:26;;;;;;;19.60;15.03;;;;;;;;;;4955034;28;20423;-80
2024/01/18 05:36:52;;;;;;;28.77;17.10;;;;;;;;;;4954972;28;20477;-80
2024/01/18 05:39:18;;;;;;;25.30;18.40;;;;;;;;;;4955077;28;20408;-80
2024/01/18 05:41:44;;;;;;;26.13;17.87;;;;;;;;;;4955044;28;20896;-79
2024/01/18 05:44:10;;;;;;;22.63;15.50;;;;;;;;;;4954665;28;20408;-79
2024/01/18 05:46:36;;;;;;;21.37;17.73;;;;;;;;;;4954991;28;20412;-79
2024/01/18 05:49:02;;;;;;;28.20;18.03;;;;;;;;;;4955018;28;20786;-79
2024/01/18 05:51:28;;;;;;;22.50;16.10;;;;;;;;;;4954635;28;20911;-78
2024/01/18 05:53:56;;;;;;;30.17;20.63;;;;;;;;;;4954828;28;20434;-79
2024/01/18 05:56:21;;;;;;;25.00;17.50;;;;;;;;;;4954779;28;20575;-78
2024/01/18 05:58:47;;;;;;;25.87;15.80;;;;;;;;;;4954334;28;20505;-78
2024/01/18 06:01:13;;;;;;;28.27;19.67;;;;;;;;;;4954714;28;20422;-78
2024/01/18 06:03:39;;;;;;;27.10;18.93;;;;;;;;;;4954702;28;20437;-78
2024/01/18 06:06:05;;;;;;;24.20;16.40;;;;;;;;;;4954650;28;20409;-78
2024/01/18 06:08:31;;;;;;;25.17;18.07;;;;;;;;;;4954679;28;20451;-78
2024/01/18 06:10:57;;;;;;;29.93;18.93;;;;;;;;;;4954641;28;20440;-78
2024/01/18 06:13:23;;;;;;;28.57;18.70;;;;;;;;;;4954367;28;20804;-78
2024/01/18 06:15:53;;;;;;;23.43;17.90;;;;;;;;;;4954402;28;20407;-79
2024/01/18 06:18:19;;;;;;;22.40;16.40;;;;;;;;;;4954490;28;20522;-79
2024/01/18 06:20:45;;;;;;;24.23;17.80;;;;;;;;;;4954464;28;20458;-79
2024/01/18 06:23:11;;;;;;;26.37;17.50;;;;;;;;;;4954517;28;20571;-79
2024/01/18 06:25:37;;;;;;;28.30;15.60;;;;;;;;;;4954492;28;20422;-78
2024/01/18 06:28:04;;;;;;;25.37;19.70;;;;;;;;;;4952801;28;20401;-79
2024/01/18 06:30:33;;;;;;;25.87;18.37;;;;;;;;;;4954247;28;20493;-79
2024/01/18 06:32:59;;;;;;;22.60;16.40;;;;;;;;;;4954361;28;20413;-79
2024/01/18 06:35:25;;;;;;;20.50;16.00;;;;;;;;;;4953012;28;20487;-78
2024/01/18 06:37:51;;;;;;;22.23;16.00;;;;;;;;;;4954137;28;20477;-79
2024/01/18 06:40:18;;;;;;;21.77;15.20;;;;;;;;;;4957372;28;20408;-79
2024/01/18 06:42:44;;;;;;;23.50;18.20;;;;;;;;;;4958223;28;20423;-79
2024/01/18 06:45:10;;;;;;;21.57;16.10;;;;;;;;;;4957918;28;20595;-80
2024/01/18 06:47:36;;;;;;;25.70;16.70;;;;;;;;;;4958484;28;20745;-80
2024/01/18 06:50:02;;;;;;;22.90;16.27;;;;;;;;;;4957112;28;20506;-79
2024/01/18 06:52:28;;;;;;;25.10;17.70;;;;;;;;;;4902280;28;20484;-80
2024/01/18 06:54:54;;;;;;;21.70;17.47;;;;;;;;;;4939374;29;20832;-80
2024/01/18 06:57:20;;;;;;;24.07;16.50;;;;;;;;;;4939464;29;20486;-80
2024/01/18 06:59:46;;;;;;;27.53;17.30;;;;;;;;;;4939143;29;20842;-80
2024/01/18 07:02:12;;;;;;;23.97;17.60;;;;;;;;;;4939486;29;20428;-80
2024/01/18 07:04:38;;;;;;;22.03;17.23;;;;;;;;;;4956123;29;20436;-81
2024/01/18 07:07:04;;;;;;;23.10;17.23;;;;;;;;;;4973436;28;20434;-80
2024/01/18 07:09:32;;;;;;;23.60;16.30;;;;;;;;;;4958661;28;20419;-80
2024/01/18 07:11:58;;;;;;;21.33;16.30;;;;;;;;;;4958190;28;20438;-81
2024/01/18 07:14:24;;;;;;;33.60;17.87;;;;;;;;;;4957807;28;20905;-80
2024/01/18 07:16:50;;;;;;;24.83;18.40;;;;;;;;;;4958322;28;20489;-79
2024/01/18 07:19:19;;;;;;;26.30;16.80;;;;;;;;;;4958392;28;20415;-81
2024/01/18 07:21:53;;;;;;;25.27;16.80;;;;;;;;;;4958277;28;20466;-81
2024/01/18 07:24:27;;;;;;;26.90;17.53;;;;;;;;;;4973256;28;20892;-82
2024/01/18 07:26:53;;;;;;;26.80;17.80;;;;;;;;;;4958143;28;20424;-81
2024/01/18 07:29:19;;;;;;;22.93;18.17;;;;;;;;;;4957648;28;20474;-82
2024/01/18 07:31:45;;;;;;;28.17;16.90;;;;;;;;;;4972964;28;20426;-81
2024/01/18 07:34:27;;;;;;;25.30;18.60;;;;;;;;;;4958188;28;20968;-82
2024/01/18 07:36:54;;;;;;;21.67;16.10;;;;;;;;;;4957888;28;20512;-82
2024/01/18 07:39:20;;;;;;;21.40;17.30;;;;;;;;;;4957891;28;20420;-81
2024/01/18 07:41:47;;;;;;;24.23;18.33;;;;;;;;;;4957721;28;20836;-82
2024/01/18 07:44:12;;;;;;;23.60;17.37;;;;;;;;;;4957628;28;20415;-80
2024/01/18 07:46:44;;;;;;;23.37;18.10;;;;;;;;;;4972228;28;20491;-80
2024/01/18 07:49:10;;;;;;;24.47;18.40;;;;;;;;;;4955425;29;20448;-79
2024/01/18 07:51:36;;;;;;;27.73;19.40;;;;;;;;;;4955362;28;20966;-78
2024/01/18 07:54:03;;;;;;;30.48;21.30;;;;;;;;;;4916817;28;20471;-79
2024/01/18 07:56:29;;;;;;;27.80;19.10;;;;;;;;;;4956786;28;20226;-79
2024/01/18 07:58:55;;;;;;;28.50;18.20;;;;;;;;;;4956518;28;20418;-78
2024/01/18 08:01:21;;;;;;;27.33;18.80;;;;;;;;;;4956655;28;20447;-79
2024/01/18 08:03:47;;;;;;;27.00;17.57;;;;;;;;;;4956817;28;20421;-79
2024/01/18 08:06:13;;;;;;;22.67;17.43;;;;;;;;;;4971459;28;20905;-81
2024/01/18 08:08:40;;;;;;;28.50;18.93;;;;;;;;;;4956422;28;20427;-79
2024/01/18 08:11:12;;;;;;;31.23;19.40;;;;;;;;;;4956628;28;20419;-81
2024/01/18 08:13:38;;;;;;;22.53;16.70;;;;;;;;;;4956228;28;20409;-79
2024/01/18 08:16:10;;;;;;;25.47;18.67;;;;;;;;;;4956125;28;20417;-80
2024/01/18 08:18:36;;;;;;;24.97;18.90;;;;;;;;;;4956378;28;20431;-79
2024/01/18 08:21:03;;;;;;;26.53;19.70;;;;;;;;;;4956327;28;20409;-79
2024/01/18 08:23:29;;;;;;;35.13;18.80;;;;;;;;;;4955324;28;20417;-79
2024/01/18 08:25:55;;;;;;;26.27;20.37;;;;;;;;;;4970581;28;20483;-80
2024/01/18 08:28:21;;;;;;;25.30;18.53;;;;;;;;;;4955575;28;20421;-80
2024/01/18 08:30:47;;;;;;;29.77;20.10;;;;;;;;;;4956060;28;20428;-79
2024/01/18 08:33:14;;;;;;;23.37;17.13;;;;;;;;;;4956155;28;20412;-80
2024/01/18 08:35:40;;;;;;;27.10;17.97;;;;;;;;;;4956053;28;20427;-80
2024/01/18 08:38:06;;;;;;;24.67;19.10;;;;;;;;;;4956018;28;20472;-79
2024/01/18 08:40:33;;;;;;;22.07;17.13;;;;;;;;;;4956037;28;20408;-80
2024/01/18 08:42:59;;;;;;;27.03;19.20;;;;;;;;;;4955580;28;20420;-80
2024/01/18 08:45:25;;;;;;;23.23;18.23;;;;;;;;;;4955826;28;20408;-80
2024/01/18 08:47:51;;;;;;;29.23;20.20;;;;;;;;;;4956481;28;20426;-78
2024/01/18 08:50:17;;;;;;;22.93;17.53;;;;;;;;;;4960483;28;20426;-80
2024/01/18 08:52:43;;;;;;;25.37;19.50;;;;;;;;;;4955198;28;20818;-82
2024/01/18 08:55:09;;;;;;;25.53;19.53;;;;;;;;;;4955819;28;20424;-81
2024/01/18 08:57:36;;;;;;;28.40;21.93;;;;;;;;;;4955116;28;20499;-85
2024/01/18 09:00:02;;;;;;;23.60;18.63;;;;;;;;;;4972628;28;20981;-81
2024/01/18 09:02:31;;;;;;;23.00;18.17;;;;;;;;;;4955095;28;20431;-84
2024/01/18 09:04:57;;;;;;;21.90;18.33;;;;;;;;;;4955511;28;20431;-82
2024/01/18 09:07:23;;;;;;;18.83;14.87;;;;;;;;;;4955332;28;20498;-82
2024/01/18 09:09:49;;;;;;;21.63;14.90;;;;;;;;;;4955478;28;20419;-82
2024/01/18 09:12:15;;;;;;;18.33;14.00;;;;;;;;;;4955416;28;20499;-82
2024/01/18 09:14:41;;;;;;;16.30;14.53;;;;;;;;;;4955098;28;20925;-82
2024/01/18 09:17:09;;;;;;;20.40;15.87;;;;;;;;;;4955210;28;20520;-82
2024/01/18 09:19:35;;;;;;;14.97;12.60;;;;;;;;;;4955191;28;20410;-83
2024/01/18 09:22:01;;;;;;;19.07;14.10;;;;;;;;;;4955168;28;20416;-82
2024/01/18 09:24:27;;;;;;;14.27;11.90;;;;;;;;;;4955237;28;21243;-83
2024/01/18 09:26:53;;;;;;;15.00;13.20;;;;;;;;;;4955223;28;20441;-83
2024/01/18 09:29:19;;;;;;;14.57;13.13;;;;;;;;;;4954770;28;20415;-84
2024/01/18 09:31:45;;;;;;;16.67;14.03;;;;;;;;;;4955105;28;20954;-83
2024/01/18 09:34:11;;;;;;;19.70;14.53;;;;;;;;;;4955045;28;20837;-84
2024/01/18 09:36:37;;;;;;;15.53;13.73;;;;;;;;;;4954968;28;20975;-83
2024/01/18 09:39:08;;;;;;;17.47;13.60;;;;;;;;;;4954818;28;20450;-83
2024/01/18 09:41:34;;;;;;;15.50;12.27;;;;;;;;;;4953685;28;20841;-82
2024/01/18 09:44:03;;;;;;;12.77;11.43;;;;;;;;;;4954541;28;20421;-85
2024/01/18 09:46:30;;;;;;;20.63;13.50;;;;;;;;;;4954808;28;20441;-83
2024/01/18 09:49:02;;;;;;;14.47;12.50;;;;;;;;;;4954756;28;20434;-83
2024/01/18 09:51:28;;;;;;;18.97;13.60;;;;;;;;;;4952335;29;20471;-84
2024/01/18 09:53:54;;;;;;;15.80;12.93;;;;;;;;;;4954669;28;20427;-84
2024/01/18 09:56:25;;;;;;;15.53;13.87;;;;;;;;;;4954428;28;20827;-84
2024/01/18 09:58:52;;;;;;;15.57;13.10;;;;;;;;;;4954297;28;20427;-84
2024/01/18 10:01:21;;;;;;;15.87;13.43;;;;;;;;;;4954411;28;20403;-85
2024/01/18 10:03:48;;;;;;;15.23;13.00;;;;;;;;;;4954403;28;20491;-84
2024/01/18 10:06:15;;;;;;;14.23;12.73;;;;;;;;;;4954612;28;20927;-85
2024/01/18 10:08:40;;;;;;;16.43;12.60;;;;;;;;;;4954484;28;20427;-84
2024/01/18 10:11:06;;;;;;;15.90;12.30;;;;;;;;;;4954517;28;20404;-87
2024/01/18 10:13:51;;;;;;;13.60;11.70;;;;;;;;;;4968125;28;20926;-80
2024/01/18 10:16:27;;;;;;;15.27;13.47;;;;;;;;;;4951337;28;20522;-84
2024/01/18 10:18:54;;;;;;;13.60;12.17;;;;;;;;;;4952185;29;20432;-79
2024/01/18 10:21:21;;;;;;;13.13;11.53;;;;;;;;;;4952956;28;20438;-80
2024/01/18 10:23:47;;;;;;;16.60;12.63;;;;;;;;;;4953534;28;21125;-79
2024/01/18 10:26:15;;;;;;;14.40;12.33;;;;;;;;;;4953370;28;20417;-80
2024/01/18 10:28:41;;;;;;;16.57;12.70;;;;;;;;;;4952900;28;20469;-79
2024/01/18 10:31:07;;;;;;;16.00;13.27;;;;;;;;;;4954019;28;20409;-79
2024/01/18 10:33:33;;;;;;;16.07;12.40;;;;;;;;;;4954102;28;20466;-81
2024/01/18 10:36:00;;;;;;;19.10;12.17;;;;;;;;;;4954164;28;20901;-78
2024/01/18 10:38:29;;;;;;;15.33;11.67;;;;;;;;;;4951646;29;20176;-79
2024/01/18 10:40:57;;;;;;;12.73;11.53;;;;;;;;;;4954155;28;20402;-80
2024/01/18 10:43:23;;;;;;;13.97;11.67;;;;;;;;;;4953855;28;20408;-79
2024/01/18 10:45:49;;;;;;;15.37;12.57;;;;;;;;;;4954222;28;20437;-80
2024/01/18 10:48:15;;;;;;;14.27;11.90;;;;;;;;;;4953803;28;20892;-80
2024/01/18 10:50:41;;;;;;;10.83;9.20;;;;;;;;;;4953878;28;20475;-80
2024/01/18 10:53:07;;;;;;;11.27;9.70;;;;;;;;;;4968801;28;20478;-84
2024/01/18 10:55:53;;;;;;;10.97;7.20;;;;;;;;;;4954225;28;20415;-83
2024/01/18 10:58:19;;;;;;;6.00;5.17;;;;;;;;;;4960702;28;20432;-79
2024/01/18 11:00:47;;;;;;;11.07;5.50;;;;;;;;;;4954226;28;20514;-81
2024/01/18 11:03:13;;;;;;;6.97;5.37;;;;;;;;;;4954494;28;20778;-80
2024/01/18 11:05:40;;;;;;;8.80;6.00;;;;;;;;;;4954656;28;20935;-80
2024/01/18 11:08:07;;;;;;;7.10;5.23;;;;;;;;;;4954623;28;20773;-80
2024/01/18 11:10:34;;;;;;;7.97;5.17;;;;;;;;;;4953322;28;20416;-81
2024/01/18 11:13:00;;;;;;;8.37;6.10;;;;;;;;;;4952884;29;20427;-84
2024/01/18 11:15:26;;;;;;;8.10;5.97;;;;;;;;;;4954528;28;20407;-84
2024/01/18 11:17:52;;;;;;;6.80;5.37;;;;;;;;;;4954258;28;20476;-82
2024/01/18 11:20:21;;;;;;;8.20;6.17;;;;;;;;;;4954352;28;20512;-85
2024/01/18 11:22:47;;;;;;;6.53;5.47;;;;;;;;;;4954324;28;20921;-83
2024/01/18 11:25:17;;;;;;;6.30;4.57;;;;;;;;;;4955514;28;20410;-86
2024/01/18 11:27:43;;;;;;;7.97;6.57;;;;;;;;;;4957568;28;20814;-83
2024/01/18 11:30:13;;;;;;;9.47;6.03;;;;;;;;;;4957711;28;20419;-85
2024/01/18 11:32:39;;;;;;;9.50;6.20;;;;;;;;;;4957931;28;20427;-81
2024/01/18 11:35:15;;;;;;;7.03;6.43;;;;;;;;;;4958179;28;20451;-81
2024/01/18 11:37:41;;;;;;;7.70;7.00;;;;;;;;;;4956414;29;20892;-83
2024/01/18 11:40:12;;;;;;;7.87;6.00;;;;;;;;;;4948905;28;20554;-86
2024/01/18 11:42:40;;;;;;;9.07;5.70;;;;;;;;;;4930193;28;20930;-87
2024/01/18 11:45:19;;;;;;;10.57;5.80;;;;;;;;;;4957798;28;20437;-86
2024/01/18 11:47:46;;;;;;;6.53;5.50;;;;;;;;;;4957812;28;20452;-80
2024/01/18 11:50:12;;;;;;;9.33;6.23;;;;;;;;;;4957618;28;20408;-84
2024/01/18 11:52:44;;;;;;;9.20;6.07;;;;;;;;;;4957771;28;20979;-88
2024/01/18 11:55:16;;;;;;;8.80;6.13;;;;;;;;;;4957805;28;20418;-81
2024/01/18 11:57:43;;;;;;;6.87;5.00;;;;;;;;;;4956630;28;20897;-81
2024/01/18 12:00:10;;;;;;;7.07;4.43;;;;;;;;;;4957097;28;20414;-82
2024/01/18 12:02:36;;;;;;;8.60;5.83;;;;;;;;;;4957540;28;20426;-82
2024/01/18 12:05:04;;;;;;;5.50;5.00;;;;;;;;;;4957464;28;20510;-80
2024/01/18 12:07:30;;;;;;;10.30;5.30;;;;;;;;;;4957407;28;20414;-83
2024/01/18 12:09:59;;;;;;;6.80;4.87;;;;;;;;;;4956839;28;20936;-81
2024/01/18 12:12:25;;;;;;;6.20;4.50;;;;;;;;;;4956987;28;20431;-82
2024/01/18 12:14:51;;;;;;;5.43;4.10;;;;;;;;;;4957125;28;20882;-83
2024/01/18 12:17:17;;;;;;;6.20;3.90;;;;;;;;;;4957209;28;20467;-84
2024/01/18 12:19:45;;;;;;;6.03;5.10;;;;;;;;;;4957156;28;20406;-82
2024/01/18 12:22:11;;;;;;;7.80;4.70;;;;;;;;;;4971890;28;20528;-82
2024/01/18 12:24:37;;;;;;;6.10;4.13;;;;;;;;;;4957007;28;20466;-82
2024/01/18 12:27:06;;;;;;;6.27;5.10;;;;;;;;;;4956599;28;20188;-82
2024/01/18 12:29:33;;;;;;;5.70;4.73;;;;;;;;;;4956599;28;20442;-82
2024/01/18 12:32:00;;;;;;;5.33;4.50;;;;;;;;;;4956874;28;20427;-82
2024/01/18 12:34:27;;;;;;;4.67;3.90;;;;;;;;;;4971470;28;20424;-83
2024/01/18 12:36:53;;;;;;;7.37;4.50;;;;;;;;;;4955953;28;20471;-81
2024/01/18 12:39:19;;;;;;;6.00;5.00;;;;;;;;;;4956867;28;20419;-84
2024/01/18 12:41:46;;;;;;;8.80;5.20;;;;;;;;;;4916527;28;20773;-80
2024/01/18 12:44:12;;;;;;;5.40;4.70;;;;;;;;;;4956028;28;20408;-80
2024/01/18 12:46:39;;;;;;;6.10;4.70;;;;;;;;;;4955898;28;20824;-79
2024/01/18 12:49:05;;;;;;;6.23;4.40;;;;;;;;;;4954714;29;20412;-80
2024/01/18 12:51:32;;;;;;;5.70;3.37;;;;;;;;;;4955790;28;20420;-80
2024/01/18 12:53:58;;;;;;;4.80;3.07;;;;;;;;;;4956064;28;20431;-83
2024/01/18 12:56:24;;;;;;;5.80;3.17;;;;;;;;;;4955925;28;20495;-80
2024/01/18 12:58:50;;;;;;;4.67;2.80;;;;;;;;;;4955408;28;20462;-81
2024/01/18 13:01:29;;;;;;;4.80;3.50;;;;;;;;;;4955532;28;20470;-80
2024/01/18 13:04:14;;;;;;;6.53;2.33;;;;;;;;;;4955745;28;20427;-80
2024/01/18 13:06:46;;;;;;;4.07;2.27;;;;;;;;;;4954977;28;20430;-80
2024/01/18 13:09:13;;;;;;;3.47;2.03;;;;;;;;;;4949044;28;20432;-81
2024/01/18 13:11:39;;;;;;;3.20;2.00;;;;;;;;;;4936487;29;20449;-81
2024/01/18 13:14:05;;;;;;;2.23;2.00;;;;;;;;;;4936020;29;20857;-80
2024/01/18 13:16:32;;;;;;;3.23;1.20;;;;;;;;;;4936400;29;20481;-80
2024/01/18 13:19:01;;;;;;;3.07;1.77;;;;;;;;;;4951209;29;20435;-81
2024/01/18 13:21:28;;;;;;;2.43;1.20;;;;;;;;;;4936475;29;20482;-81
2024/01/18 13:23:54;;;;;;;2.50;1.50;;;;;;;;;;4936419;29;20465;-81
2024/01/18 13:26:20;;;;;;;3.33;1.40;;;;;;;;;;4953627;29;20429;-81
2024/01/18 13:28:46;;;;;;;4.40;1.30;;;;;;;;;;4954200;28;20452;-81
2024/01/18 13:31:12;;;;;;;4.93;1.27;;;;;;;;;;4952361;28;20482;-81
2024/01/18 13:33:38;;;;;;;2.20;0.90;;;;;;;;;;4954614;28;20901;-81
2024/01/18 13:36:05;;;;;;;3.90;1.10;;;;;;;;;;4955110;28;20460;-81
2024/01/18 13:38:30;;;;;;;6.57;1.10;;;;;;;;;;4954112;29;20439;-80
2024/01/18 13:40:56;;;;;;;2.93;1.10;;;;;;;;;;4953330;29;20790;-80
2024/01/18 13:43:22;;;;;;;4.63;1.20;;;;;;;;;;4914406;28;20470;-81
2024/01/18 13:45:48;;;;;;;3.30;1.13;;;;;;;;;;4954960;28;20886;-80
2024/01/18 13:48:14;;;;;;;2.47;1.13;;;;;;;;;;4954868;28;20434;-82
2024/01/18 13:50:40;;;;;;;4.17;0.50;;;;;;;;;;4948289;28;20544;-82
2024/01/18 13:53:06;;;;;;;3.13;0.90;;;;;;;;;;4942957;29;20569;-82
2024/01/18 13:55:32;;;;;;;2.03;0.83;;;;;;;;;;4969315;28;20459;-82
2024/01/18 13:57:59;;;;;;;4.53;0.83;;;;;;;;;;4954216;28;20568;-82
2024/01/18 14:00:25;;;;;;;3.40;0.90;;;;;;;;;;4952836;29;20422;-82
2024/01/18 14:02:51;;;;;;;1.70;0.60;;;;;;;;;;4953727;28;20801;-83
2024/01/18 14:05:17;;;;;;;3.17;0.90;;;;;;;;;;4952848;29;20417;-85
2024/01/18 14:07:43;;;;;;;5.40;1.33;;;;;;;;;;4955046;28;20853;-82
2024/01/18 14:10:09;;;;;;;2.83;1.17;;;;;;;;;;4954968;28;20508;-83
2024/01/18 14:12:35;;;;;;;1.60;0.50;;;;;;;;;;4954753;28;20416;-84
2024/01/18 14:15:01;;;;;;;2.83;0.97;;;;;;;;;;4954789;28;20917;-80
2024/01/18 14:17:30;;;;;;;2.60;0.50;;;;;;;;;;4955345;28;20870;-83
2024/01/18 14:19:56;;;;;;;1.73;0.50;;;;;;;;;;4954000;28;20431;-82
2024/01/18 14:22:25;;;;;;;2.17;0.63;;;;;;;;;;4955026;28;20416;-85